sensor_id;sensor_type;location;lat;lon;timestamp;pressure;altitude;pressure_sealevel;temperature;humidity
20971;BME280;10644;48.834;10.088;2023-07-29T00:01:49;96300.91;;;22.36;65.17
20971;BME280;10644;48.834;10.088;2023-07-29T00:04:16;96290.63;;;22.34;65.54
20971;BME280;10644;48.834;10.088;2023-07-29T00:06:44;96289.50;;;22.37;65.59
20971;BME280;10644;48.834;10.088;2023-07-29T00:09:09;96297.00;;;22.32;65.93
20971;BME280;10644;48.834;10.088;2023-07-29T00:11:37;96299.28;;;22.27;66.38
20971;BME280;10644;48.834;10.088;2023-07-29T00:14:03;96293.09;;;22.20;66.65
20971;BME280;10644;48.834;10.088;2023-07-29T00:16:30;96293.56;;;21.99;67.37
20971;BME280;10644;48.834;10.088;2023-07-29T00:18:56;96294.22;;;22.01;67.48
20971;BME280;10644;48.834;10.088;2023-07-29T00:21:23;96292.09;;;22.13;67.36
20971;BME280;10644;48.834;10.088;2023-07-29T00:23:49;96284.59;;;22.18;66.82
20971;BME280;10644;48.834;10.088;2023-07-29T00:26:14;96285.09;;;21.89;67.18
20971;BME280;10644;48.834;10.088;2023-07-29T00:28:42;96278.78;;;21.50;68.56
20971;BME280;10644;48.834;10.088;2023-07-29T00:31:07;96267.19;;;21.37;69.21
20971;BME280;10644;48.834;10.088;2023-07-29T00:33:32;96273.88;;;21.06;70.74
20971;BME280;10644;48.834;10.088;2023-07-29T00:36:00;96270.34;;;21.07;71.22
20971;BME280;10644;48.834;10.088;2023-07-29T00:38:27;96276.97;;;21.01;71.16
20971;BME280;10644;48.834;10.088;2023-07-29T00:40:53;96293.69;;;21.24;70.47
20971;BME280;10644;48.834;10.088;2023-07-29T00:43:18;96294.22;;;21.44;69.83
20971;BME280;10644;48.834;10.088;2023-07-29T00:45:46;96284.16;;;21.57;69.29
20971;BME280;10644;48.834;10.088;2023-07-29T00:48:12;96283.44;;;21.72;68.40
20971;BME280;10644;48.834;10.088;2023-07-29T00:50:38;96287.50;;;21.83;67.02
20971;BME280;10644;48.834;10.088;2023-07-29T00:53:06;96268.28;;;21.76;67.02
20971;BME280;10644;48.834;10.088;2023-07-29T00:55:31;96280.03;;;21.88;67.36
20971;BME280;10644;48.834;10.088;2023-07-29T00:57:57;96273.81;;;21.89;67.57
20971;BME280;10644;48.834;10.088;2023-07-29T01:00:25;96270.69;;;21.69;67.86
20971;BME280;10644;48.834;10.088;2023-07-29T01:02:52;96271.31;;;21.63;68.31
20971;BME280;10644;48.834;10.088;2023-07-29T01:05:19;96272.75;;;21.50;68.94
20971;BME280;10644;48.834;10.088;2023-07-29T01:07:51;96264.63;;;21.53;68.35
20971;BME280;10644;48.834;10.088;2023-07-29T01:10:29;96267.72;;;21.64;68.43
20971;BME280;10644;48.834;10.088;2023-07-29T01:13:19;96251.66;;;21.69;68.28
20971;BME280;10644;48.834;10.088;2023-07-29T01:15:55;96258.81;;;21.83;67.73
20971;BME280;10644;48.834;10.088;2023-07-29T01:18:30;96246.41;;;21.85;67.85
20971;BME280;10644;48.834;10.088;2023-07-29T01:21:01;96239.72;;;21.82;67.60
20971;BME280;10644;48.834;10.088;2023-07-29T01:23:31;96243.75;;;21.61;68.01
20971;BME280;10644;48.834;10.088;2023-07-29T01:25:57;96255.16;;;21.52;68.80
20971;BME280;10644;48.834;10.088;2023-07-29T01:28:23;96235.25;;;21.51;69.04
20971;BME280;10644;48.834;10.088;2023-07-29T01:30:50;96239.53;;;21.52;68.95
20971;BME280;10644;48.834;10.088;2023-07-29T01:33:25;96222.06;;;21.52;68.56
20971;BME280;10644;48.834;10.088;2023-07-29T01:35:57;96230.38;;;21.56;68.95
20971;BME280;10644;48.834;10.088;2023-07-29T01:41:01;96229.72;;;21.38;69.18
20971;BME280;10644;48.834;10.088;2023-07-29T01:43:28;96242.38;;;21.25;70.06
20971;BME280;10644;48.834;10.088;2023-07-29T01:45:54;96234.56;;;21.33;69.69
20971;BME280;10644;48.834;10.088;2023-07-29T01:48:19;96233.13;;;21.38;69.68
20971;BME280;10644;48.834;10.088;2023-07-29T01:50:44;96233.78;;;21.48;69.34
20971;BME280;10644;48.834;10.088;2023-07-29T01:53:10;96232.00;;;21.57;69.08
20971;BME280;10644;48.834;10.088;2023-07-29T01:55:35;96228.44;;;21.58;68.93
20971;BME280;10644;48.834;10.088;2023-07-29T01:58:00;96213.28;;;21.61;68.76
20971;BME280;10644;48.834;10.088;2023-07-29T02:00:26;96221.75;;;21.47;69.04
20971;BME280;10644;48.834;10.088;2023-07-29T02:02:51;96204.47;;;21.38;69.39
20971;BME280;10644;48.834;10.088;2023-07-29T02:05:16;96229.91;;;21.52;69.06
20971;BME280;10644;48.834;10.088;2023-07-29T02:07:42;96214.09;;;21.62;68.48
20971;BME280;10644;48.834;10.088;2023-07-29T02:10:07;96213.41;;;21.44;68.66
20971;BME280;10644;48.834;10.088;2023-07-29T02:12:33;96219.97;;;21.48;69.35
20971;BME280;10644;48.834;10.088;2023-07-29T02:14:59;96214.59;;;21.49;69.19
20971;BME280;10644;48.834;10.088;2023-07-29T02:17:24;96207.56;;;21.50;68.57
20971;BME280;10644;48.834;10.088;2023-07-29T02:19:51;96221.28;;;21.60;67.93
20971;BME280;10644;48.834;10.088;2023-07-29T02:22:17;96213.47;;;21.52;68.41
20971;BME280;10644;48.834;10.088;2023-07-29T02:24:45;96216.06;;;21.60;68.54
20971;BME280;10644;48.834;10.088;2023-07-29T02:27:11;96226.06;;;21.72;68.13
20971;BME280;10644;48.834;10.088;2023-07-29T02:29:36;96226.19;;;21.79;68.06
20971;BME280;10644;48.834;10.088;2023-07-29T02:32:04;96226.19;;;21.79;67.68
20971;BME280;10644;48.834;10.088;2023-07-29T02:34:30;96228.16;;;21.77;68.07
20971;BME280;10644;48.834;10.088;2023-07-29T02:36:55;96233.31;;;21.61;68.43
20971;BME280;10644;48.834;10.088;2023-07-29T02:39:21;96224.03;;;21.50;68.82
20971;BME280;10644;48.834;10.088;2023-07-29T02:41:47;96219.66;;;21.59;68.47
20971;BME280;10644;48.834;10.088;2023-07-29T02:44:12;96218.69;;;21.68;68.12
20971;BME280;10644;48.834;10.088;2023-07-29T02:46:37;96228.66;;;21.80;67.94
20971;BME280;10644;48.834;10.088;2023-07-29T02:49:03;96221.81;;;21.79;67.45
20971;BME280;10644;48.834;10.088;2023-07-29T02:51:32;96213.50;;;21.84;67.52
20971;BME280;10644;48.834;10.088;2023-07-29T02:53:57;96201.09;;;21.78;67.58
20971;BME280;10644;48.834;10.088;2023-07-29T02:56:23;96207.94;;;21.79;67.56
20971;BME280;10644;48.834;10.088;2023-07-29T02:58:48;96208.28;;;21.84;67.11
20971;BME280;10644;48.834;10.088;2023-07-29T03:01:17;96203.88;;;21.84;67.58
20971;BME280;10644;48.834;10.088;2023-07-29T03:03:43;96207.28;;;21.85;67.29
20971;BME280;10644;48.834;10.088;2023-07-29T03:06:11;96204.69;;;21.93;67.45
20971;BME280;10644;48.834;10.088;2023-07-29T03:08:36;96198.00;;;21.74;67.90
20971;BME280;10644;48.834;10.088;2023-07-29T03:11:13;96201.69;;;21.40;68.94
20971;BME280;10644;48.834;10.088;2023-07-29T03:13:39;96197.09;;;21.34;69.08
20971;BME280;10644;48.834;10.088;2023-07-29T03:16:15;96198.56;;;21.36;69.19
20971;BME280;10644;48.834;10.088;2023-07-29T03:18:44;96188.34;;;21.43;69.33
20971;BME280;10644;48.834;10.088;2023-07-29T03:21:10;96186.72;;;21.50;69.11
20971;BME280;10644;48.834;10.088;2023-07-29T03:23:36;96197.16;;;21.58;69.02
20971;BME280;10644;48.834;10.088;2023-07-29T03:26:07;96185.41;;;21.54;69.09
20971;BME280;10644;48.834;10.088;2023-07-29T03:28:37;96177.09;;;21.58;68.67
20971;BME280;10644;48.834;10.088;2023-07-29T03:31:03;96171.41;;;21.63;68.89
20971;BME280;10644;48.834;10.088;2023-07-29T03:33:29;96181.72;;;21.72;68.53
20971;BME280;10644;48.834;10.088;2023-07-29T03:35:54;96176.31;;;21.74;68.31
20971;BME280;10644;48.834;10.088;2023-07-29T03:38:20;96177.31;;;21.81;67.86
20971;BME280;10644;48.834;10.088;2023-07-29T03:40:46;96173.69;;;21.66;67.93
20971;BME280;10644;48.834;10.088;2023-07-29T03:43:11;96162.59;;;21.56;68.32
20971;BME280;10644;48.834;10.088;2023-07-29T03:45:37;96161.63;;;21.65;68.32
20971;BME280;10644;48.834;10.088;2023-07-29T03:48:03;96154.31;;;21.60;68.32
20971;BME280;10644;48.834;10.088;2023-07-29T03:50:29;96151.84;;;21.59;68.39
20971;BME280;10644;48.834;10.088;2023-07-29T03:52:55;96139.81;;;21.58;68.45
20971;BME280;10644;48.834;10.088;2023-07-29T03:55:21;96150.69;;;21.53;68.33
20971;BME280;10644;48.834;10.088;2023-07-29T03:57:46;96148.25;;;21.44;68.64
20971;BME280;10644;48.834;10.088;2023-07-29T04:00:12;96148.41;;;21.42;68.45
20971;BME280;10644;48.834;10.088;2023-07-29T04:02:38;96160.47;;;21.51;68.63
20971;BME280;10644;48.834;10.088;2023-07-29T04:05:04;96145.50;;;21.45;68.76
20971;BME280;10644;48.834;10.088;2023-07-29T04:07:31;96165.53;;;21.45;69.52
20971;BME280;10644;48.834;10.088;2023-07-29T04:09:58;96157.88;;;21.43;69.49
20971;BME280;10644;48.834;10.088;2023-07-29T04:12:24;96155.59;;;21.32;69.69
20971;BME280;10644;48.834;10.088;2023-07-29T04:14:49;96151.53;;;21.46;69.10
20971;BME280;10644;48.834;10.088;2023-07-29T04:17:14;96157.56;;;21.62;68.76
20971;BME280;10644;48.834;10.088;2023-07-29T04:19:40;96143.53;;;21.63;68.98
20971;BME280;10644;48.834;10.088;2023-07-29T04:22:08;96145.53;;;21.69;68.80
20971;BME280;10644;48.834;10.088;2023-07-29T04:24:33;96147.59;;;21.66;68.98
20971;BME280;10644;48.834;10.088;2023-07-29T04:26:58;96151.84;;;21.59;69.17
20971;BME280;10644;48.834;10.088;2023-07-29T04:29:26;96143.53;;;21.63;69.57
20971;BME280;10644;48.834;10.088;2023-07-29T04:31:54;96144.06;;;21.75;68.83
20971;BME280;10644;48.834;10.088;2023-07-29T04:34:19;96138.53;;;21.70;68.44
20971;BME280;10644;48.834;10.088;2023-07-29T04:36:45;96149.09;;;21.60;68.50
20971;BME280;10644;48.834;10.088;2023-07-29T04:39:11;96155.44;;;21.42;69.26
20971;BME280;10644;48.834;10.088;2023-07-29T04:41:36;96148.28;;;21.52;69.24
20971;BME280;10644;48.834;10.088;2023-07-29T04:44:02;96162.28;;;21.59;69.27
20971;BME280;10644;48.834;10.088;2023-07-29T04:46:27;96140.63;;;21.66;68.86
20971;BME280;10644;48.834;10.088;2023-07-29T04:48:52;96146.31;;;21.78;68.66
20971;BME280;10644;48.834;10.088;2023-07-29T04:51:20;96146.97;;;21.88;68.21
20971;BME280;10644;48.834;10.088;2023-07-29T04:53:46;96151.22;;;21.97;67.67
20971;BME280;10644;48.834;10.088;2023-07-29T04:56:11;96144.03;;;21.99;67.50
20971;BME280;10644;48.834;10.088;2023-07-29T04:58:36;96146.47;;;22.00;67.40
20971;BME280;10644;48.834;10.088;2023-07-29T05:01:03;96148.25;;;22.08;67.66
20971;BME280;10644;48.834;10.088;2023-07-29T05:03:30;96148.91;;;22.02;67.46
20971;BME280;10644;48.834;10.088;2023-07-29T05:05:57;96141.75;;;22.04;67.36
20971;BME280;10644;48.834;10.088;2023-07-29T05:08:23;96148.59;;;21.89;67.96
20971;BME280;10644;48.834;10.088;2023-07-29T05:10:49;96144.69;;;21.77;68.49
20971;BME280;10644;48.834;10.088;2023-07-29T05:13:15;96153.97;;;21.87;68.17
20971;BME280;10644;48.834;10.088;2023-07-29T05:15:41;96146.31;;;21.94;67.88
20971;BME280;10644;48.834;10.088;2023-07-29T05:18:06;96141.75;;;21.88;68.48
20971;BME280;10644;48.834;10.088;2023-07-29T05:20:31;96143.19;;;21.98;68.20
20971;BME280;10644;48.834;10.088;2023-07-29T05:22:57;96137.50;;;22.03;68.37
20971;BME280;10644;48.834;10.088;2023-07-29T05:25:22;96140.44;;;22.08;68.34
20971;BME280;10644;48.834;10.088;2023-07-29T05:27:50;96144.31;;;22.12;67.87
20971;BME280;10644;48.834;10.088;2023-07-29T05:30:15;96145.28;;;22.19;67.98
20971;BME280;10644;48.834;10.088;2023-07-29T05:32:40;96145.44;;;22.25;67.64
20971;BME280;10644;48.834;10.088;2023-07-29T05:35:08;96149.31;;;22.37;67.57
20971;BME280;10644;48.834;10.088;2023-07-29T05:37:35;96162.22;;;22.39;67.38
20971;BME280;10644;48.834;10.088;2023-07-29T05:40:00;96168.25;;;22.39;67.55
20971;BME280;10644;48.834;10.088;2023-07-29T05:42:26;96173.63;;;22.38;67.49
20971;BME280;10644;48.834;10.088;2023-07-29T05:44:51;96196.50;;;22.44;67.50
20971;BME280;10644;48.834;10.088;2023-07-29T05:47:16;96174.28;;;22.40;66.97
20971;BME280;10644;48.834;10.088;2023-07-29T05:49:42;96195.81;;;22.50;67.19
20971;BME280;10644;48.834;10.088;2023-07-29T05:52:09;96194.53;;;22.46;66.76
20971;BME280;10644;48.834;10.088;2023-07-29T05:54:34;96207.56;;;22.38;67.46
20971;BME280;10644;48.834;10.088;2023-07-29T05:57:00;96224.06;;;22.30;68.41
20971;BME280;10644;48.834;10.088;2023-07-29T05:59:25;96228.16;;;22.25;68.47
20971;BME280;10644;48.834;10.088;2023-07-29T06:01:54;96248.88;;;22.18;69.40
20971;BME280;10644;48.834;10.088;2023-07-29T06:04:19;96236.16;;;22.07;69.86
20971;BME280;10644;48.834;10.088;2023-07-29T06:06:48;96226.22;;;22.03;70.17
20971;BME280;10644;48.834;10.088;2023-07-29T06:09:13;96205.66;;;22.00;70.00
20971;BME280;10644;48.834;10.088;2023-07-29T06:11:38;96197.19;;;22.06;69.90
20971;BME280;10644;48.834;10.088;2023-07-29T06:14:04;96201.06;;;22.18;69.67
20971;BME280;10644;48.834;10.088;2023-07-29T06:16:29;96199.94;;;22.20;69.50
20971;BME280;10644;48.834;10.088;2023-07-29T06:18:54;96203.69;;;22.26;69.39
20971;BME280;10644;48.834;10.088;2023-07-29T06:21:20;96199.25;;;22.26;68.96
20971;BME280;10644;48.834;10.088;2023-07-29T06:23:46;96204.97;;;22.30;69.73
20971;BME280;10644;48.834;10.088;2023-07-29T06:26:11;96196.50;;;22.12;70.77
20971;BME280;10644;48.834;10.088;2023-07-29T06:28:36;96172.22;;;21.87;72.02
20971;BME280;10644;48.834;10.088;2023-07-29T06:31:02;96183.66;;;21.78;73.13
20971;BME280;10644;48.834;10.088;2023-07-29T06:33:30;96171.59;;;21.69;73.08
20971;BME280;10644;48.834;10.088;2023-07-29T06:35:55;96178.28;;;21.72;72.72
20971;BME280;10644;48.834;10.088;2023-07-29T06:38:20;96178.78;;;21.67;73.46
20971;BME280;10644;48.834;10.088;2023-07-29T06:40:48;96173.06;;;21.72;73.48
20971;BME280;10644;48.834;10.088;2023-07-29T06:43:13;96173.03;;;21.64;73.69
20971;BME280;10644;48.834;10.088;2023-07-29T06:45:38;96186.09;;;21.64;74.30
20971;BME280;10644;48.834;10.088;2023-07-29T06:48:04;96174.00;;;21.47;75.62
20971;BME280;10644;48.834;10.088;2023-07-29T06:50:29;96183.44;;;21.56;75.39
20971;BME280;10644;48.834;10.088;2023-07-29T06:52:55;96172.59;;;21.68;74.88
20971;BME280;10644;48.834;10.088;2023-07-29T06:55:20;96168.81;;;21.79;74.66
20971;BME280;10644;48.834;10.088;2023-07-29T06:57:48;96172.91;;;21.81;75.41
20971;BME280;10644;48.834;10.088;2023-07-29T07:00:13;96168.81;;;21.95;74.77
20971;BME280;10644;48.834;10.088;2023-07-29T07:02:39;96165.22;;;21.96;75.26
20971;BME280;10644;48.834;10.088;2023-07-29T07:05:07;96172.06;;;22.05;75.04
20971;BME280;10644;48.834;10.088;2023-07-29T07:07:32;96158.66;;;22.24;73.26
20971;BME280;10644;48.834;10.088;2023-07-29T07:09:57;96171.53;;;22.25;71.70
20971;BME280;10644;48.834;10.088;2023-07-29T07:12:25;96171.81;;;22.38;71.69
20971;BME280;10644;48.834;10.088;2023-07-29T07:14:50;96175.44;;;22.45;71.12
20971;BME280;10644;48.834;10.088;2023-07-29T07:17:15;96171.13;;;22.60;70.85
20971;BME280;10644;48.834;10.088;2023-07-29T07:19:41;96168.34;;;22.70;70.60
20971;BME280;10644;48.834;10.088;2023-07-29T07:22:06;96167.97;;;22.81;71.21
20971;BME280;10644;48.834;10.088;2023-07-29T07:24:32;96160.78;;;22.83;71.07
20971;BME280;10644;48.834;10.088;2023-07-29T07:26:57;96160.69;;;22.99;71.31
20971;BME280;10644;48.834;10.088;2023-07-29T07:29:23;96162.06;;;22.87;71.50
20971;BME280;10644;48.834;10.088;2023-07-29T07:31:52;96159.53;;;23.01;71.13
20971;BME280;10644;48.834;10.088;2023-07-29T07:34:20;96154.41;;;22.85;70.60
20971;BME280;10644;48.834;10.088;2023-07-29T07:36:46;96163.00;;;22.94;70.40
20971;BME280;10644;48.834;10.088;2023-07-29T07:39:12;96167.78;;;23.13;69.65
20971;BME280;10644;48.834;10.088;2023-07-29T07:41:37;96162.56;;;23.21;69.53
20971;BME280;10644;48.834;10.088;2023-07-29T07:44:03;96166.13;;;23.28;68.48
20971;BME280;10644;48.834;10.088;2023-07-29T07:46:28;96176.69;;;23.34;68.31
20971;BME280;10644;48.834;10.088;2023-07-29T07:48:54;96181.44;;;23.31;68.39
20971;BME280;10644;48.834;10.088;2023-07-29T07:51:20;96198.13;;;23.30;69.02
20971;BME280;10644;48.834;10.088;2023-07-29T07:53:45;96197.47;;;23.28;69.18
20971;BME280;10644;48.834;10.088;2023-07-29T07:56:11;96229.84;;;23.27;69.24
20971;BME280;10644;48.834;10.088;2023-07-29T07:58:36;96246.09;;;23.06;70.94
20971;BME280;10644;48.834;10.088;2023-07-29T08:01:05;96244.66;;;22.96;71.01
20971;BME280;10644;48.834;10.088;2023-07-29T08:03:32;96251.53;;;22.89;71.42
20971;BME280;10644;48.834;10.088;2023-07-29T08:05:58;96240.81;;;22.76;72.19
20971;BME280;10644;48.834;10.088;2023-07-29T08:08:23;96244.13;;;22.54;73.41
20971;BME280;10644;48.834;10.088;2023-07-29T08:10:49;96251.16;;;22.29;72.08
20971;BME280;10644;48.834;10.088;2023-07-29T08:13:14;96243.19;;;22.15;72.29
20971;BME280;10644;48.834;10.088;2023-07-29T08:15:40;96242.19;;;22.16;72.03
20971;BME280;10644;48.834;10.088;2023-07-29T08:18:08;96239.06;;;22.20;71.50
20971;BME280;10644;48.834;10.088;2023-07-29T08:20:34;96228.47;;;22.30;70.85
20971;BME280;10644;48.834;10.088;2023-07-29T08:23:01;96220.63;;;22.30;71.26
20971;BME280;10644;48.834;10.088;2023-07-29T08:25:28;96233.19;;;22.42;70.43
20971;BME280;10644;48.834;10.088;2023-07-29T08:27:54;96223.56;;;22.35;70.07
20971;BME280;10644;48.834;10.088;2023-07-29T08:30:19;96216.41;;;22.37;69.47
20971;BME280;10644;48.834;10.088;2023-07-29T08:32:44;96225.69;;;22.39;69.12
20971;BME280;10644;48.834;10.088;2023-07-29T08:35:12;96228.78;;;22.43;69.73
20971;BME280;10644;48.834;10.088;2023-07-29T08:37:40;96224.50;;;22.58;69.24
20971;BME280;10644;48.834;10.088;2023-07-29T08:40:05;96228.13;;;22.57;69.44
20971;BME280;10644;48.834;10.088;2023-07-29T08:42:32;96212.59;;;22.63;68.94
20971;BME280;10644;48.834;10.088;2023-07-29T08:45:03;96207.34;;;22.71;67.84
20971;BME280;10644;48.834;10.088;2023-07-29T08:47:31;96200.13;;;22.81;68.01
20971;BME280;10644;48.834;10.088;2023-07-29T08:50:01;96210.03;;;22.94;68.00
20971;BME280;10644;48.834;10.088;2023-07-29T08:52:31;96197.28;;;22.99;67.63
20971;BME280;10644;48.834;10.088;2023-07-29T08:55:00;96204.38;;;23.13;67.59
20971;BME280;10644;48.834;10.088;2023-07-29T08:57:26;96202.81;;;23.04;68.12
20971;BME280;10644;48.834;10.088;2023-07-29T08:59:52;96216.81;;;23.11;66.86
20971;BME280;10644;48.834;10.088;2023-07-29T09:02:17;96220.75;;;23.15;67.27
20971;BME280;10644;48.834;10.088;2023-07-29T09:04:43;96223.38;;;23.07;68.02
20971;BME280;10644;48.834;10.088;2023-07-29T09:07:09;96227.66;;;22.92;67.60
20971;BME280;10644;48.834;10.088;2023-07-29T09:09:37;96231.88;;;23.01;68.06
20971;BME280;10644;48.834;10.088;2023-07-29T09:12:03;96226.44;;;23.10;68.46
20971;BME280;10644;48.834;10.088;2023-07-29T09:14:28;96223.06;;;23.02;68.98
20971;BME280;10644;48.834;10.088;2023-07-29T09:16:54;96221.69;;;23.14;68.79
20971;BME280;10644;48.834;10.088;2023-07-29T09:19:19;96225.31;;;23.13;69.11
20971;BME280;10644;48.834;10.088;2023-07-29T09:21:46;96215.81;;;23.20;68.71
20971;BME280;10644;48.834;10.088;2023-07-29T09:24:12;96220.56;;;23.24;68.17
20971;BME280;10644;48.834;10.088;2023-07-29T09:26:48;96229.47;;;23.38;67.55
20971;BME280;10644;48.834;10.088;2023-07-29T09:29:14;96211.69;;;23.56;68.07
20971;BME280;10644;48.834;10.088;2023-07-29T09:31:39;96221.84;;;23.73;67.14
20971;BME280;10644;48.834;10.088;2023-07-29T09:34:05;96218.09;;;23.98;66.08
20971;BME280;10644;48.834;10.088;2023-07-29T09:36:31;96219.44;;;24.17;65.44
20971;BME280;10644;48.834;10.088;2023-07-29T09:38:57;96207.53;;;24.29;65.59
20971;BME280;10644;48.834;10.088;2023-07-29T09:41:27;96205.81;;;24.50;64.83
20971;BME280;10644;48.834;10.088;2023-07-29T09:44:00;96201.22;;;24.52;64.73
20971;BME280;10644;48.834;10.088;2023-07-29T09:46:32;96205.28;;;24.55;62.68
20971;BME280;10644;48.834;10.088;2023-07-29T09:48:58;96193.72;;;24.35;64.15
20971;BME280;10644;48.834;10.088;2023-07-29T09:51:24;96207.44;;;24.37;64.00
20971;BME280;10644;48.834;10.088;2023-07-29T09:53:50;96204.03;;;24.51;63.98
20971;BME280;10644;48.834;10.088;2023-07-29T09:56:16;96199.16;;;24.77;64.00
20971;BME280;10644;48.834;10.088;2023-07-29T09:58:45;96186.13;;;24.98;62.64
20971;BME280;10644;48.834;10.088;2023-07-29T10:01:11;96199.31;;;25.19;62.01
20971;BME280;10644;48.834;10.088;2023-07-29T10:03:37;96199.94;;;25.21;61.13
20971;BME280;10644;48.834;10.088;2023-07-29T10:06:04;96185.66;;;25.09;60.87
20971;BME280;10644;48.834;10.088;2023-07-29T10:08:31;96188.00;;;25.18;60.65
20971;BME280;10644;48.834;10.088;2023-07-29T10:10:59;96197.94;;;25.37;60.33
20971;BME280;10644;48.834;10.088;2023-07-29T10:13:28;96187.66;;;25.57;60.30
20971;BME280;10644;48.834;10.088;2023-07-29T10:15:54;96185.25;;;25.62;59.17
20971;BME280;10644;48.834;10.088;2023-07-29T10:18:22;96176.78;;;25.81;58.79
20971;BME280;10644;48.834;10.088;2023-07-29T10:20:50;96183.47;;;25.83;58.25
20971;BME280;10644;48.834;10.088;2023-07-29T10:23:17;96185.59;;;25.73;58.28
20971;BME280;10644;48.834;10.088;2023-07-29T10:25:47;96183.59;;;25.96;57.78
20971;BME280;10644;48.834;10.088;2023-07-29T10:28:14;96182.91;;;26.09;58.26
20971;BME280;10644;48.834;10.088;2023-07-29T10:30:41;96189.88;;;26.23;57.99
20971;BME280;10644;48.834;10.088;2023-07-29T10:33:06;96194.75;;;26.26;57.72
20971;BME280;10644;48.834;10.088;2023-07-29T10:35:33;96189.22;;;26.42;56.61
20971;BME280;10644;48.834;10.088;2023-07-29T10:38:02;96177.41;;;26.59;56.30
20971;BME280;10644;48.834;10.088;2023-07-29T10:43:12;96183.53;;;26.66;55.98
20971;BME280;10644;48.834;10.088;2023-07-29T10:45:41;96189.38;;;26.68;56.19
20971;BME280;10644;48.834;10.088;2023-07-29T10:48:11;96185.38;;;26.72;55.81
20971;BME280;10644;48.834;10.088;2023-07-29T10:50:37;96181.31;;;26.69;55.82
20971;BME280;10644;48.834;10.088;2023-07-29T10:53:04;96178.88;;;26.68;55.79
20971;BME280;10644;48.834;10.088;2023-07-29T10:55:32;96181.47;;;26.61;55.42
20971;BME280;10644;48.834;10.088;2023-07-29T10:58:12;96177.72;;;26.77;54.94
20971;BME280;10644;48.834;10.088;2023-07-29T11:00:41;96153.81;;;26.72;53.70
20971;BME280;10644;48.834;10.088;2023-07-29T11:03:07;96177.25;;;26.67;55.07
20971;BME280;10644;48.834;10.088;2023-07-29T11:08:20;96168.09;;;26.97;53.91
20971;BME280;10644;48.834;10.088;2023-07-29T11:11:02;96182.44;;;26.88;52.98
20971;BME280;10644;48.834;10.088;2023-07-29T11:13:29;96185.13;;;26.67;52.95
20971;BME280;10644;48.834;10.088;2023-07-29T11:15:55;96194.75;;;26.87;53.45
20971;BME280;10644;48.834;10.088;2023-07-29T11:18:34;96206.72;;;26.56;53.69
20971;BME280;10644;48.834;10.088;2023-07-29T11:21:01;96209.59;;;25.91;56.83
20971;BME280;10644;48.834;10.088;2023-07-29T11:23:32;96222.22;;;25.25;60.05
20971;BME280;10644;48.834;10.088;2023-07-29T11:25:57;96231.34;;;24.85;61.51
20971;BME280;10644;48.834;10.088;2023-07-29T11:28:24;96244.94;;;24.37;60.74
20971;BME280;10644;48.834;10.088;2023-07-29T11:30:50;96244.75;;;24.02;60.92
20971;BME280;10644;48.834;10.088;2023-07-29T11:33:25;96234.28;;;24.02;63.06
20971;BME280;10644;48.834;10.088;2023-07-29T11:35:51;96260.91;;;24.05;62.13
20971;BME280;10644;48.834;10.088;2023-07-29T11:38:21;96251.22;;;24.28;61.12
20971;BME280;10644;48.834;10.088;2023-07-29T11:41:00;96249.34;;;24.59;60.39
20971;BME280;10644;48.834;10.088;2023-07-29T11:43:25;96253.47;;;24.83;59.84
20971;BME280;10644;48.834;10.088;2023-07-29T11:45:52;96256.66;;;24.93;59.86
20971;BME280;10644;48.834;10.088;2023-07-29T11:48:25;96236.34;;;24.95;58.77
20971;BME280;10644;48.834;10.088;2023-07-29T11:50:51;96234.13;;;25.13;58.65
20971;BME280;10644;48.834;10.088;2023-07-29T11:53:16;96247.59;;;25.39;59.59
20971;BME280;10644;48.834;10.088;2023-07-29T11:55:42;96244.97;;;25.10;59.48
20971;BME280;10644;48.834;10.088;2023-07-29T11:58:07;96237.78;;;25.26;60.17
20971;BME280;10644;48.834;10.088;2023-07-29T12:00:33;96217.81;;;25.46;57.24
20971;BME280;10644;48.834;10.088;2023-07-29T12:02:59;96225.78;;;25.74;57.44
20971;BME280;10644;48.834;10.088;2023-07-29T12:05:25;96226.44;;;25.97;56.86
20971;BME280;10644;48.834;10.088;2023-07-29T12:07:50;96226.47;;;26.24;56.27
20971;BME280;10644;48.834;10.088;2023-07-29T12:10:18;96214.84;;;26.12;56.90
20971;BME280;10644;48.834;10.088;2023-07-29T12:12:47;96215.44;;;26.08;57.34
20971;BME280;10644;48.834;10.088;2023-07-29T12:15:13;96191.63;;;26.16;56.47
20971;BME280;10644;48.834;10.088;2023-07-29T12:17:41;96197.50;;;26.18;57.38
20971;BME280;10644;48.834;10.088;2023-07-29T12:20:10;96183.06;;;26.35;58.19
20971;BME280;10644;48.834;10.088;2023-07-29T12:22:35;96186.34;;;26.37;58.06
20971;BME280;10644;48.834;10.088;2023-07-29T12:25:04;96192.88;;;26.20;57.60
20971;BME280;10644;48.834;10.088;2023-07-29T12:27:32;96195.25;;;26.36;57.23
20971;BME280;10644;48.834;10.088;2023-07-29T12:29:58;96184.66;;;26.57;57.39
20971;BME280;10644;48.834;10.088;2023-07-29T12:32:29;96183.03;;;26.83;56.73
20971;BME280;10644;48.834;10.088;2023-07-29T12:34:54;96176.13;;;26.82;55.56
20971;BME280;10644;48.834;10.088;2023-07-29T12:37:19;96169.97;;;26.69;56.15
20971;BME280;10644;48.834;10.088;2023-07-29T12:39:45;96173.84;;;26.66;57.54
20971;BME280;10644;48.834;10.088;2023-07-29T12:42:11;96163.78;;;26.83;56.12
20971;BME280;10644;48.834;10.088;2023-07-29T12:44:37;96170.94;;;27.02;56.46
20971;BME280;10644;48.834;10.088;2023-07-29T12:47:04;96172.69;;;26.82;56.90
20971;BME280;10644;48.834;10.088;2023-07-29T12:49:33;96166.75;;;26.67;57.51
20971;BME280;10644;48.834;10.088;2023-07-29T12:51:59;96167.34;;;26.69;58.29
20971;BME280;10644;48.834;10.088;2023-07-29T12:54:24;96162.66;;;26.58;57.38
20971;BME280;10644;48.834;10.088;2023-07-29T12:56:50;96162.72;;;26.71;57.71